Challenge Peak — 9V9589 — position and weather

sailwx.info

Track history (hours):
 
Tides and Currents Weather Stations Pressure Air Temp Water Temp Dewpoint Dewpoint Depression Visibility Wind Speed Wind Dir Waves Ship Positions

Challenge Peak

Last reported at 2018-Apr-19 07:02 UTC. Time now 2018-Apr-27 05:05 UTC.
Position S 28°28' E 154°08'.

Length 182 m; draft 8.5 m.

Type: Tanker. MMSI: 566433000.

Date/timePositionNaut miles runAvg speedWind from/ knotsBaromVisibWave heightAir tempDewpointWater temp
2018-Apr-19 07:02S 28°28' E 154°08'313.6
2018-Apr-19 06:49S 28°31' E 154°07'25311.7
2018-Apr-18 09:12S 32°36' E 152°55'210.9
2018-Apr-18 08:58S 32°38' E 152°54'510.8
2018-Apr-18 08:30S 32°43' E 152°51'1410.3
2018-Apr-18 07:09S 32°56' E 152°45'2 9.6
2018-Apr-18 06:59S 32°57' E 152°44'5 9.7
2018-Apr-18 06:31S 33°01' E 152°43'  
2018-Apr-14 10:59S 34°47' E 138°28'2 4.9
2018-Apr-14 10:30S 34°47' E 138°31'3 0.4
2018-Apr-14 03:33S 34°50' E 138°30'0 0.0
2018-Apr-14 03:27S 34°50' E 138°30'0 0.0
2018-Apr-13 22:57S 34°50' E 138°30'9 0.3
2018-Apr-12 11:36S 34°49' E 138°19'0 3.0
2018-Apr-12 11:30S 34°49' E 138°19'2 0.1
2018-Apr-11 08:08S 34°48' E 138°17'0 0.0
2018-Apr-11 07:59S 34°48' E 138°17'0 0.0
2018-Apr-10 23:23S 34°48' E 138°17'0 0.0
2018-Apr-10 22:59S 34°48' E 138°17'0 0.0
2018-Apr-10 13:38S 34°47' E 138°17'0 0.0
2018-Apr-10 13:29S 34°47' E 138°17'0 0.0
2018-Apr-10 10:05S 34°47' E 138°17'0 0.0
2018-Apr-10 09:59S 34°47' E 138°17'  
Track history (hours):
 
Tides and Currents Weather Stations Pressure Air Temp Water Temp Dewpoint Dewpoint Depression Visibility Wind Speed Wind Dir Waves Ship Positions

Challenge Peak

Last reported at 2018-Apr-19 07:02 UTC. Time now 2018-Apr-27 05:05 UTC.
Position S 28°28' E 154°08'.

Length 182 m; draft 8.5 m.

Type: Tanker. MMSI: 566433000.

Date/timePositionNaut miles runAvg speedWind from/ knotsBaromVisibWave heightAir tempDewpointWater temp
2018-Apr-19 07:02S 28°28' E 154°08'313.6
2018-Apr-19 06:49S 28°31' E 154°07'25311.7
2018-Apr-18 09:12S 32°36' E 152°55'210.9
2018-Apr-18 08:58S 32°38' E 152°54'510.8
2018-Apr-18 08:30S 32°43' E 152°51'1410.3
2018-Apr-18 07:09S 32°56' E 152°45'2 9.6
2018-Apr-18 06:59S 32°57' E 152°44'5 9.7
2018-Apr-18 06:31S 33°01' E 152°43'  
2018-Apr-14 10:59S 34°47' E 138°28'2 4.9
2018-Apr-14 10:30S 34°47' E 138°31'3 0.4
2018-Apr-14 03:33S 34°50' E 138°30'0 0.0
2018-Apr-14 03:27S 34°50' E 138°30'0 0.0
2018-Apr-13 22:57S 34°50' E 138°30'9 0.3
2018-Apr-12 11:36S 34°49' E 138°19'0 3.0
2018-Apr-12 11:30S 34°49' E 138°19'2 0.1
2018-Apr-11 08:08S 34°48' E 138°17'0 0.0
2018-Apr-11 07:59S 34°48' E 138°17'0 0.0
2018-Apr-10 23:23S 34°48' E 138°17'0 0.0
2018-Apr-10 22:59S 34°48' E 138°17'0 0.0
2018-Apr-10 13:38S 34°47' E 138°17'0 0.0
2018-Apr-10 13:29S 34°47' E 138°17'0 0.0
2018-Apr-10 10:05S 34°47' E 138°17'0 0.0
2018-Apr-10 09:59S 34°47' E 138°17'  

Dump ship's entire track history